Moelfre, United Kingdom
Current Conditions -  °F | °C
As of 10:57 AM on Thursday 23 Oct 2014 (Local Time) from EGOV Reporting Station
Moderate Rain Moderate Rain  
Wind Chill: 57°   Ceiling: 800
Heat Index: 57°   Visibility: 2.5mi
Dew Point: 57°   Wind: 26mph
Humidity: 100%   Direction: 210°SSW
Pressure: 29.94"   Gusts: NA
Location:  53.34°N, 4.25°W
Report Text: EGOV 230957Z 21023KT 4000 RADZ SCT006 BKN008 BKN015 14/14 Q1014 YLO1 TEMPO 9999 FEW005 SCT007 GRN
Loading
Personal Weather Stations






























Interactive Weather Map
Tropical Storm Tracking
New forecast layout! Learn more

10-Day Weather Forecast

Advertisements
Track Severe Weather on mobile